< < Back
Terminal Aerodrome Forecast


Current Version              Previous Versions:   1  2  3  4  5  6  7  8  9  

Terminal Aerodrome Forecast

175
FTUS42 KJAX 302325
TAFGNV
TAF
KGNV 302325Z 3100/3124 06005KT P6SM VCSH SCT020 BKN040 OVC060
     FM310400 06003KT P6SM VCSH SCT012 BKN020
      TEMPO 3109/3113 SCT007 BKN012
     FM311300 20006KT P6SM VCSH SCT007 BKN015
      TEMPO 3113/3117 SCT015 BKN025
     FM311700 21008KT P6SM VCSH SCT015 BKN025=



Latest METAR

014
SAUS70 KWBC 310200 RRH
MTRGNV
METAR KGNV 310153Z 04007KT 10SM OVC007 25/23 A2991 RMK AO2 SLP126
T02500233


USA.gov is the U.S. government's official web portal to all federal, state and local government web resources and services.